Snow/Ice From: 16-12-2017 16:00 Until: 17-12-2017 16:00 warning for: Snow/Ice Level: Yellow info button

Although rather usual in this region, locally or potentially dangerous phenomena are expected. (such as local winds, summer thunderstorms, rising streams or high waves) Be aware and pay attention to the latest weather updates, especially if you carry out activities exposed to weather or close to a stream or shoreline. 


Meteo18 Weather Cam more information Meteo18 Weather Cam


Thunder radar more information blitzortung!


warning for Snow/Ice more information rain snow radar


Visit our other weather sites:

Template documentation
and downloads

And another site



Weather Underground History page Text

Daily Summary for March 20, 2016 Units:  Metric    English   Both
« Previous Day
Next Day »
Daily Weekly Monthly Yearly Custom
  High: Low: Average:
Temperature: 12.5 °C 1.6 °C 5.5 °C
Dew Point: 6.2 °C 0.5 °C 2.7 °C
Humidity: 94 % 62 % 84 %
Wind Speed: 11.3 km/h 0.0 km/h 3.2 km/h
Wind Gust: 20.9 km/h - -
Wind:- - ENE
Pressure: 1018.8 hPa 1015.8 hPa -
Precipitation: 0.0 mm    
Historical Graphs
 
 
Tabular Data for March 20, 2016
Time Temperature Dew Point Pressure Wind Wind Speed Wind Gust Humidity Rainfall Rate (Hourly)
00:02 2.5 °C 1.2 °C 1018.5 hPa NNE 6.4 km/h 14.5 km/h 91 % 0.0 mm
00:07 2.5 °C 1.2 °C 1018.5 hPa NE 3.2 km/h 12.9 km/h 91 % 0.0 mm
00:12 2.4 °C 1.1 °C 1018.5 hPa ENE 4.8 km/h 12.9 km/h 91 % 0.0 mm
00:17 2.4 °C 1.1 °C 1018.5 hPa NE 6.4 km/h 12.9 km/h 91 % 0.0 mm
00:22 2.3 °C 1.1 °C 1018.5 hPa ENE 3.2 km/h 11.3 km/h 92 % 0.0 mm
00:27 2.3 °C 1.1 °C 1018.5 hPa East 4.8 km/h 11.3 km/h 92 % 0.0 mm
00:32 2.3 °C 1.1 °C 1018.5 hPa SE 3.2 km/h 14.5 km/h 92 % 0.0 mm
00:37 2.3 °C 1.1 °C 1018.5 hPa ESE 1.6 km/h 14.5 km/h 92 % 0.0 mm
00:42 2.3 °C 1.1 °C 1018.5 hPa NNE 3.2 km/h 14.5 km/h 92 % 0.0 mm
00:52 2.3 °C 1.1 °C 1018.5 hPa East 3.2 km/h 12.9 km/h 92 % 0.0 mm
00:57 2.3 °C 1.1 °C 1018.5 hPa NE 6.4 km/h 12.9 km/h 92 % 0.0 mm
01:02 2.2 °C 1.0 °C 1018.5 hPa Calm   12.9 km/h 92 % 0.0 mm
01:12 2.2 °C 1.0 °C 1018.5 hPa NE 4.8 km/h 17.7 km/h 92 % 0.0 mm
01:17 2.2 °C 1.0 °C 1018.5 hPa ENE 8.0 km/h 17.7 km/h 92 % 0.0 mm
01:22 2.2 °C 1.0 °C 1018.5 hPa SE 4.8 km/h 14.5 km/h 92 % 0.0 mm
01:27 2.2 °C 1.2 °C 1018.2 hPa ESE 4.8 km/h 12.9 km/h 93 % 0.0 mm
01:32 2.2 °C 1.2 °C 1018.2 hPa East 3.2 km/h 16.1 km/h 93 % 0.0 mm
01:37 2.1 °C 0.9 °C 1018.5 hPa NE 4.8 km/h 16.1 km/h 92 % 0.0 mm
01:42 2.1 °C 1.1 °C 1018.5 hPa East 9.7 km/h 16.1 km/h 93 % 0.0 mm
01:47 2.1 °C 1.1 °C 1018.2 hPa ENE 8.0 km/h 14.5 km/h 93 % 0.0 mm
01:52 2.0 °C 1.0 °C 1018.5 hPa SE 1.6 km/h 14.5 km/h 93 % 0.0 mm
01:57 2.0 °C 1.0 °C 1018.2 hPa ESE 1.6 km/h 11.3 km/h 93 % 0.0 mm
02:02 2.0 °C 1.0 °C 1018.2 hPa NE 3.2 km/h 11.3 km/h 93 % 0.0 mm
02:07 2.0 °C 1.0 °C 1018.2 hPa East 9.7 km/h 11.3 km/h 93 % 0.0 mm
02:12 2.0 °C 1.0 °C 1018.2 hPa East 4.8 km/h 16.1 km/h 93 % 0.0 mm
02:17 1.9 °C 0.9 °C 1018.2 hPa NNE 9.7 km/h 16.1 km/h 93 % 0.0 mm
02:22 1.9 °C 0.9 °C 1017.8 hPa ESE 3.2 km/h 16.1 km/h 93 % 0.0 mm
02:27 1.9 °C 0.9 °C 1017.8 hPa ENE 3.2 km/h 17.7 km/h 93 % 0.0 mm
02:32 1.9 °C 0.9 °C 1017.8 hPa ENE 3.2 km/h 17.7 km/h 93 % 0.0 mm
02:37 1.9 °C 0.9 °C 1017.8 hPa ENE 6.4 km/h 17.7 km/h 93 % 0.0 mm
02:42 1.9 °C 0.9 °C 1017.8 hPa NE 8.0 km/h 14.5 km/h 93 % 0.0 mm
02:47 1.8 °C 0.8 °C 1017.8 hPa NNE 4.8 km/h 12.9 km/h 93 % 0.0 mm
02:52 1.8 °C 0.8 °C 1017.8 hPa ENE 6.4 km/h 12.9 km/h 93 % 0.0 mm
02:57 1.8 °C 0.8 °C 1017.8 hPa NE 1.6 km/h 12.9 km/h 93 % 0.0 mm
03:02 1.7 °C 0.7 °C 1017.8 hPa East 4.8 km/h 12.9 km/h 93 % 0.0 mm
03:07 1.7 °C 0.7 °C 1017.8 hPa ENE 4.8 km/h 12.9 km/h 93 % 0.0 mm
03:17 1.6 °C 0.6 °C 1017.5 hPa ESE 3.2 km/h 9.7 km/h 93 % 0.0 mm
03:22 1.6 °C 0.6 °C 1017.8 hPa SE 1.6 km/h 9.7 km/h 93 % 0.0 mm
03:32 1.7 °C 0.7 °C 1017.8 hPa NE 4.8 km/h 9.7 km/h 93 % 0.0 mm
03:37 1.7 °C 0.7 °C 1017.8 hPa ENE 1.6 km/h 9.7 km/h 93 % 0.0 mm
03:52 1.9 °C 1.0 °C 1017.5 hPa ENE 1.6 km/h 12.9 km/h 94 % 0.0 mm
03:57 1.9 °C 1.0 °C 1017.5 hPa Calm   12.9 km/h 94 % 0.0 mm
04:02 1.9 °C 1.0 °C 1017.5 hPa ENE 1.6 km/h 12.9 km/h 94 % 0.0 mm
04:12 2.0 °C 1.1 °C 1017.5 hPa NE 3.2 km/h 6.4 km/h 94 % 0.0 mm
04:17 2.0 °C 1.1 °C 1017.5 hPa SE 1.6 km/h 8.0 km/h 94 % 0.0 mm
04:22 2.0 °C 1.1 °C 1017.5 hPa ENE 4.8 km/h 8.0 km/h 94 % 0.0 mm
04:27 2.0 °C 1.1 °C 1017.5 hPa SSE 3.2 km/h 12.9 km/h 94 % 0.0 mm
04:32 2.0 °C 1.1 °C 1017.5 hPa ENE 4.8 km/h 12.9 km/h 94 % 0.0 mm
04:37 2.1 °C 1.2 °C 1017.2 hPa East 1.6 km/h 14.5 km/h 94 % 0.0 mm
04:42 2.1 °C 1.2 °C 1017.5 hPa NE 3.2 km/h 14.5 km/h 94 % 0.0 mm
04:47 2.1 °C 1.2 °C 1017.5 hPa ESE 1.6 km/h 14.5 km/h 94 % 0.0 mm
04:52 2.2 °C 1.3 °C 1017.5 hPa NE 1.6 km/h 14.5 km/h 94 % 0.0 mm
04:57 2.2 °C 1.3 °C 1017.2 hPa ENE 1.6 km/h 17.7 km/h 94 % 0.0 mm
05:02 2.2 °C 1.3 °C 1017.2 hPa East 6.4 km/h 17.7 km/h 94 % 0.0 mm
05:12 2.2 °C 1.3 °C 1017.2 hPa North 1.6 km/h 17.7 km/h 94 % 0.0 mm
05:17 2.3 °C 1.4 °C 1017.5 hPa NNE 1.6 km/h 16.1 km/h 94 % 0.0 mm
05:22 2.3 °C 1.4 °C 1017.2 hPa ENE 3.2 km/h 16.1 km/h 94 % 0.0 mm
05:27 2.4 °C 1.5 °C 1017.2 hPa ESE 1.6 km/h 9.7 km/h 94 % 0.0 mm
05:32 2.4 °C 1.5 °C 1017.5 hPa ENE 3.2 km/h 9.7 km/h 94 % 0.0 mm
05:37 2.4 °C 1.5 °C 1017.5 hPa ESE 3.2 km/h 16.1 km/h 94 % 0.0 mm
05:42 2.4 °C 1.5 °C 1017.5 hPa East 1.6 km/h 16.1 km/h 94 % 0.0 mm
05:47 2.5 °C 1.6 °C 1017.5 hPa Calm   12.9 km/h 94 % 0.0 mm
05:52 2.6 °C 1.7 °C 1017.5 hPa NE 4.8 km/h 12.9 km/h 94 % 0.0 mm
05:57 2.6 °C 1.7 °C 1017.5 hPa ENE 1.6 km/h 12.9 km/h 94 % 0.0 mm
06:02 2.6 °C 1.7 °C 1017.5 hPa ENE 3.2 km/h 12.9 km/h 94 % 0.0 mm
06:07 2.6 °C 1.7 °C 1017.5 hPa East 1.6 km/h 11.3 km/h 94 % 0.0 mm
06:12 2.6 °C 1.6 °C 1017.5 hPa North 8.0 km/h 11.3 km/h 93 % 0.0 mm
06:17 2.7 °C 1.7 °C 1017.5 hPa NE 4.8 km/h 14.5 km/h 93 % 0.0 mm
06:22 2.7 °C 1.7 °C 1017.5 hPa NNE 1.6 km/h 14.5 km/h 93 % 0.0 mm
06:27 2.7 °C 1.7 °C 1017.5 hPa NE 8.0 km/h 12.9 km/h 93 % 0.0 mm
06:32 2.7 °C 1.7 °C 1017.5 hPa East 3.2 km/h 12.9 km/h 93 % 0.0 mm
06:42 2.7 °C 1.7 °C 1017.5 hPa NE 6.4 km/h 12.9 km/h 93 % 0.0 mm
06:47 2.7 °C 1.7 °C 1017.5 hPa NE 6.4 km/h 14.5 km/h 93 % 0.0 mm
06:52 2.7 °C 1.7 °C 1017.5 hPa NE 3.2 km/h 14.5 km/h 93 % 0.0 mm
06:57 2.7 °C 1.7 °C 1017.5 hPa East 3.2 km/h 14.5 km/h 93 % 0.0 mm
07:02 2.7 °C 1.7 °C 1017.5 hPa NE 8.0 km/h 14.5 km/h 93 % 0.0 mm
07:12 2.7 °C 1.7 °C 1017.5 hPa ENE 8.0 km/h 14.5 km/h 93 % 0.0 mm
07:17 2.7 °C 1.7 °C 1017.8 hPa NNE 8.0 km/h 16.1 km/h 93 % 0.0 mm
07:22 2.7 °C 1.7 °C 1017.8 hPa NE 8.0 km/h 16.1 km/h 93 % 0.0 mm
07:27 2.8 °C 1.8 °C 1017.8 hPa NE 1.6 km/h 14.5 km/h 93 % 0.0 mm
07:32 2.8 °C 1.8 °C 1017.8 hPa NE 1.6 km/h 14.5 km/h 93 % 0.0 mm
07:37 2.8 °C 1.8 °C 1017.8 hPa NE 4.8 km/h 14.5 km/h 93 % 0.0 mm
07:42 2.8 °C 1.8 °C 1017.8 hPa NE 3.2 km/h 14.5 km/h 93 % 0.0 mm
07:47 2.8 °C 1.8 °C 1017.8 hPa ESE 1.6 km/h 12.9 km/h 93 % 0.0 mm
07:52 2.8 °C 1.8 °C 1017.8 hPa Calm   12.9 km/h 93 % 0.0 mm
07:57 2.9 °C 1.9 °C 1017.8 hPa Calm   11.3 km/h 93 % 0.0 mm
08:02 2.9 °C 1.9 °C 1017.8 hPa East 1.6 km/h 11.3 km/h 93 % 0.0 mm
08:12 3.0 °C 2.0 °C 1017.8 hPa NE 1.6 km/h 11.3 km/h 93 % 0.0 mm
08:17 3.0 °C 1.8 °C 1017.8 hPa NE 1.6 km/h 11.3 km/h 92 % 0.0 mm
08:22 3.0 °C 2.0 °C 1017.8 hPa NNE 6.4 km/h 11.3 km/h 93 % 0.0 mm
08:27 3.1 °C 2.1 °C 1018.2 hPa NE 11.3 km/h 14.5 km/h 93 % 0.0 mm
08:32 3.1 °C 2.1 °C 1018.2 hPa NE 6.4 km/h 14.5 km/h 93 % 0.0 mm
08:37 3.1 °C 2.1 °C 1018.2 hPa North 1.6 km/h 14.5 km/h 93 % 0.0 mm
08:42 3.1 °C 1.9 °C 1018.2 hPa ENE 3.2 km/h 14.5 km/h 92 % 0.0 mm
08:47 3.2 °C 2.0 °C 1018.2 hPa NE 3.2 km/h 12.9 km/h 92 % 0.0 mm
08:52 3.3 °C 2.1 °C 1018.2 hPa NNW 1.6 km/h 12.9 km/h 92 % 0.0 mm
08:57 3.3 °C 2.1 °C 1018.2 hPa ENE 6.4 km/h 12.9 km/h 92 % 0.0 mm
09:02 3.3 °C 2.1 °C 1018.2 hPa North 3.2 km/h 12.9 km/h 92 % 0.0 mm
09:07 3.4 °C 2.1 °C 1018.5 hPa North 1.6 km/h 14.5 km/h 91 % 0.0 mm
09:12 3.4 °C 2.1 °C 1018.5 hPa ENE 1.6 km/h 14.5 km/h 91 % 0.0 mm
09:17 3.4 °C 2.1 °C 1018.5 hPa NE 3.2 km/h 9.7 km/h 91 % 0.0 mm
09:22 3.5 °C 2.2 °C 1018.5 hPa Calm   9.7 km/h 91 % 0.0 mm
09:32 3.8 °C 2.5 °C 1018.5 hPa Calm   8.0 km/h 91 % 0.0 mm
09:37 4.0 °C 2.7 °C 1018.5 hPa Calm   6.4 km/h 91 % 0.0 mm
09:42 4.2 °C 2.7 °C 1018.5 hPa Calm   8.0 km/h 90 % 0.0 mm
09:47 4.4 °C 2.7 °C 1018.5 hPa Calm   8.0 km/h 89 % 0.0 mm
09:52 4.4 °C 2.6 °C 1018.5 hPa Calm   8.0 km/h 88 % 0.0 mm
09:57 4.5 °C 2.7 °C 1018.5 hPa NE 4.8 km/h 6.4 km/h 88 % 0.0 mm
10:02 4.5 °C 2.7 °C 1018.5 hPa NE 1.6 km/h 9.7 km/h 88 % 0.0 mm
10:12 4.8 °C 2.8 °C 1018.5 hPa Calm   9.7 km/h 87 % 0.0 mm
10:17 5.0 °C 3.2 °C 1018.5 hPa Calm   9.7 km/h 88 % 0.0 mm
10:22 5.2 °C 3.2 °C 1018.8 hPa Calm   9.7 km/h 87 % 0.0 mm
10:32 5.5 °C 3.3 °C 1018.8 hPa Calm   8.0 km/h 86 % 0.0 mm
10:37 5.8 °C 3.5 °C 1018.8 hPa Calm   8.0 km/h 85 % 0.0 mm
10:42 6.0 °C 3.5 °C 1018.8 hPa Calm   8.0 km/h 84 % 0.0 mm
10:47 6.2 °C 3.9 °C 1018.8 hPa Calm   4.8 km/h 85 % 0.0 mm
10:57 6.2 °C 3.5 °C 1018.8 hPa NE 3.2 km/h 6.4 km/h 83 % 0.0 mm
11:02 6.1 °C 3.3 °C 1018.8 hPa NNE 3.2 km/h 9.7 km/h 82 % 0.0 mm
11:07 5.9 °C 3.4 °C 1018.8 hPa NE 3.2 km/h 9.7 km/h 84 % 0.0 mm
11:12 5.9 °C 3.6 °C 1018.8 hPa North 1.6 km/h 9.7 km/h 85 % 0.0 mm
11:17 6.2 °C 3.7 °C 1018.8 hPa Calm   9.7 km/h 84 % 0.0 mm
11:22 6.7 °C 4.2 °C 1018.8 hPa Calm   9.7 km/h 84 % 0.0 mm
11:27 7.0 °C 4.1 °C 1018.8 hPa Calm   8.0 km/h 82 % 0.0 mm
11:32 7.1 °C 4.1 °C 1018.8 hPa NNE 1.6 km/h 9.7 km/h 81 % 0.0 mm
11:37 6.9 °C 3.7 °C 1018.8 hPa ENE 3.2 km/h 9.7 km/h 80 % 0.0 mm
11:42 6.9 °C 4.0 °C 1018.8 hPa Calm   12.9 km/h 82 % 0.0 mm
11:47 7.2 °C 3.8 °C 1018.8 hPa NNE 3.2 km/h 12.9 km/h 79 % 0.0 mm
11:52 7.6 °C 4.5 °C 1018.8 hPa Calm   12.9 km/h 81 % 0.0 mm
11:57 7.8 °C 4.6 °C 1018.8 hPa North 4.8 km/h 12.9 km/h 80 % 0.0 mm
12:02 7.9 °C 4.5 °C 1018.8 hPa NE 4.8 km/h 11.3 km/h 79 % 0.0 mm
12:07 7.8 °C 4.4 °C 1018.5 hPa North 4.8 km/h 12.9 km/h 79 % 0.0 mm
12:12 8.2 °C 4.4 °C 1018.5 hPa NNW 1.6 km/h 12.9 km/h 77 % 0.0 mm
12:17 8.4 °C 4.8 °C 1018.5 hPa NNW 4.8 km/h 12.9 km/h 78 % 0.0 mm
12:22 8.6 °C 5.0 °C 1018.5 hPa NE 3.2 km/h 12.9 km/h 78 % 0.0 mm
12:32 8.7 °C 4.7 °C 1018.5 hPa NE 3.2 km/h 9.7 km/h 76 % 0.0 mm
12:37 9.0 °C 5.0 °C 1018.5 hPa North 1.6 km/h 9.7 km/h 76 % 0.0 mm
12:42 9.2 °C 5.4 °C 1018.5 hPa NNE 4.8 km/h 9.7 km/h 77 % 0.0 mm
12:47 9.3 °C 5.1 °C 1018.5 hPa ESE 3.2 km/h 12.9 km/h 75 % 0.0 mm
12:52 9.3 °C 4.7 °C 1018.5 hPa Calm   12.9 km/h 73 % 0.0 mm
12:57 9.5 °C 5.1 °C 1018.5 hPa SE 1.6 km/h 12.9 km/h 74 % 0.0 mm
13:02 9.4 °C 4.8 °C 1018.2 hPa North 3.2 km/h 9.7 km/h 73 % 0.0 mm
13:07 9.8 °C 5.6 °C 1018.2 hPa Calm   9.7 km/h 75 % 0.0 mm
13:12 9.7 °C 4.9 °C 1018.2 hPa Calm   11.3 km/h 72 % 0.0 mm
13:17 9.8 °C 5.0 °C 1018.2 hPa NNE 1.6 km/h 11.3 km/h 72 % 0.0 mm
13:22 9.9 °C 5.3 °C 1018.2 hPa Calm   11.3 km/h 73 % 0.0 mm
13:27 9.9 °C 5.5 °C 1017.8 hPa Calm   14.5 km/h 74 % 0.0 mm
13:32 9.9 °C 5.1 °C 1017.8 hPa NNE 1.6 km/h 14.5 km/h 72 % 0.0 mm
13:37 10.1 °C 5.5 °C 1017.8 hPa NE 6.4 km/h 11.3 km/h 73 % 0.0 mm
13:47 10.2 °C 5.2 °C 1017.8 hPa Calm   11.3 km/h 71 % 0.0 mm
13:52 10.6 °C 6.2 °C 1017.8 hPa Calm   9.7 km/h 74 % 0.0 mm
13:57 10.7 °C 5.5 °C 1017.5 hPa Calm   9.7 km/h 70 % 0.0 mm
14:02 10.9 °C 5.8 °C 1017.5 hPa NNE 1.6 km/h 9.7 km/h 71 % 0.0 mm
14:07 11.0 °C 5.3 °C 1017.5 hPa Calm   8.0 km/h 68 % 0.0 mm
14:12 11.1 °C 5.6 °C 1017.5 hPa NNE 4.8 km/h 6.4 km/h 69 % 0.0 mm
14:17 10.8 °C 5.3 °C 1017.5 hPa West 1.6 km/h 11.3 km/h 69 % 0.0 mm
14:22 10.9 °C 5.4 °C 1017.5 hPa Calm   11.3 km/h 69 % 0.0 mm
14:32 11.2 °C 5.3 °C 1017.2 hPa NNE 1.6 km/h 8.0 km/h 67 % 0.0 mm
14:37 11.2 °C 5.3 °C 1017.2 hPa WNW 1.6 km/h 8.0 km/h 67 % 0.0 mm
14:42 11.4 °C 5.5 °C 1017.2 hPa Calm   8.0 km/h 67 % 0.0 mm
14:47 11.6 °C 5.7 °C 1017.2 hPa Calm   6.4 km/h 67 % 0.0 mm
14:52 11.6 °C 5.2 °C 1017.2 hPa SSW 4.8 km/h 6.4 km/h 65 % 0.0 mm
14:57 11.3 °C 5.6 °C 1017.2 hPa NNE 1.6 km/h 12.9 km/h 68 % 0.0 mm
15:02 11.3 °C 5.4 °C 1017.2 hPa North 3.2 km/h 12.9 km/h 67 % 0.0 mm
15:07 11.3 °C 5.8 °C 1017.2 hPa NE 1.6 km/h 11.3 km/h 69 % 0.0 mm
15:22 11.7 °C 5.6 °C 1016.8 hPa ENE 3.2 km/h 8.0 km/h 66 % 0.0 mm
15:27 11.8 °C 5.7 °C 1016.8 hPa NE 4.8 km/h 8.0 km/h 66 % 0.0 mm
15:32 11.7 °C 5.3 °C 1016.5 hPa SE 3.2 km/h 11.3 km/h 65 % 0.0 mm
15:37 11.9 °C 5.7 °C 1016.5 hPa ENE 9.7 km/h 11.3 km/h 66 % 0.0 mm
15:42 11.9 °C 5.5 °C 1016.5 hPa NNE 6.4 km/h 11.3 km/h 65 % 0.0 mm
15:47 11.8 °C 5.9 °C 1016.5 hPa East 3.2 km/h 11.3 km/h 67 % 0.0 mm
15:57 11.9 °C 5.5 °C 1016.5 hPa NNE 8.0 km/h 12.9 km/h 65 % 0.0 mm
16:02 12.0 °C 6.1 °C 1016.1 hPa NE 1.6 km/h 14.5 km/h 67 % 0.0 mm
16:12 12.3 °C 5.9 °C 1016.1 hPa North 3.2 km/h 12.9 km/h 65 % 0.0 mm
16:17 12.3 °C 5.7 °C 1016.1 hPa Calm   12.9 km/h 64 % 0.0 mm
16:22 12.5 °C 5.6 °C 1016.1 hPa NE 4.8 km/h 12.9 km/h 63 % 0.0 mm
16:27 12.4 °C 5.6 °C 1016.1 hPa NE 4.8 km/h 8.0 km/h 63 % 0.0 mm
16:32 12.4 °C 6.0 °C 1016.1 hPa NE 1.6 km/h 8.0 km/h 65 % 0.0 mm
16:37 12.3 °C 5.5 °C 1016.1 hPa ENE 3.2 km/h 11.3 km/h 63 % 0.0 mm
16:42 12.2 °C 5.8 °C 1016.1 hPa NNE 1.6 km/h 11.3 km/h 65 % 0.0 mm
16:47 12.3 °C 5.9 °C 1016.1 hPa NE 3.2 km/h 11.3 km/h 65 % 0.0 mm
16:52 12.4 °C 5.6 °C 1016.1 hPa East 3.2 km/h 11.3 km/h 63 % 0.0 mm
16:57 12.3 °C 5.2 °C 1016.1 hPa ENE 1.6 km/h 11.3 km/h 62 % 0.0 mm
17:02 12.2 °C 5.6 °C 1016.1 hPa Calm   11.3 km/h 64 % 0.0 mm
17:07 12.1 °C 5.5 °C 1016.1 hPa NE 4.8 km/h 11.3 km/h 64 % 0.0 mm
17:12 12.1 °C 5.3 °C 1016.1 hPa NNE 3.2 km/h 11.3 km/h 63 % 0.0 mm
17:17 12.1 °C 5.5 °C 1016.1 hPa ENE 1.6 km/h 11.3 km/h 64 % 0.0 mm
17:22 11.9 °C 5.5 °C 1016.1 hPa NNE 4.8 km/h 11.3 km/h 65 % 0.0 mm
17:27 11.8 °C 5.2 °C 1015.8 hPa NNE 3.2 km/h 9.7 km/h 64 % 0.0 mm
17:32 11.6 °C 5.0 °C 1016.1 hPa NE 3.2 km/h 9.7 km/h 64 % 0.0 mm
17:37 11.4 °C 5.3 °C 1016.1 hPa NE 3.2 km/h 8.0 km/h 66 % 0.0 mm
17:42 11.2 °C 5.3 °C 1016.1 hPa NE 4.8 km/h 8.0 km/h 67 % 0.0 mm
17:47 10.9 °C 5.2 °C 1016.1 hPa ENE 3.2 km/h 11.3 km/h 68 % 0.0 mm
17:52 10.6 °C 5.1 °C 1016.1 hPa NE 6.4 km/h 12.9 km/h 69 % 0.0 mm
17:57 10.2 °C 5.0 °C 1016.1 hPa ENE 11.3 km/h 17.7 km/h 70 % 0.0 mm
18:02 9.9 °C 4.7 °C 1016.1 hPa East 11.3 km/h 17.7 km/h 70 % 0.0 mm
18:07 9.7 °C 4.9 °C 1016.1 hPa NE 1.6 km/h 17.7 km/h 72 % 0.0 mm
18:12 9.5 °C 4.9 °C 1016.5 hPa NE 6.4 km/h 17.7 km/h 73 % 0.0 mm
18:17 9.3 °C 4.7 °C 1016.1 hPa East 3.2 km/h 17.7 km/h 73 % 0.0 mm
18:22 9.1 °C 4.5 °C 1016.5 hPa North 3.2 km/h 14.5 km/h 73 % 0.0 mm
18:27 8.9 °C 4.3 °C 1016.5 hPa NE 4.8 km/h 14.5 km/h 73 % 0.0 mm
18:37 8.4 °C 4.0 °C 1016.5 hPa ENE 3.2 km/h 16.1 km/h 74 % 0.0 mm
18:42 8.2 °C 4.0 °C 1016.8 hPa NE 4.8 km/h 16.1 km/h 75 % 0.0 mm
18:47 8.0 °C 3.6 °C 1016.8 hPa NE 9.7 km/h 16.1 km/h 74 % 0.0 mm
18:52 7.8 °C 3.6 °C 1016.8 hPa SE 1.6 km/h 20.9 km/h 75 % 0.0 mm
19:02 7.2 °C 3.4 °C 1017.2 hPa ENE 8.0 km/h 20.9 km/h 77 % 0.0 mm
19:07 7.1 °C 3.2 °C 1017.2 hPa ENE 8.0 km/h 17.7 km/h 76 % 0.0 mm
19:12 6.9 °C 3.1 °C 1017.2 hPa South 3.2 km/h 17.7 km/h 77 % 0.0 mm
19:22 6.5 °C 2.9 °C 1017.2 hPa ENE 8.0 km/h 17.7 km/h 78 % 0.0 mm
19:32 6.1 °C 2.7 °C 1017.2 hPa ENE 4.8 km/h 17.7 km/h 79 % 0.0 mm
19:37 5.9 °C 2.5 °C 1017.2 hPa NE 8.0 km/h 16.1 km/h 79 % 0.0 mm
19:42 5.8 °C 2.4 °C 1017.2 hPa NE 6.4 km/h 16.1 km/h 79 % 0.0 mm
19:47 5.7 °C 2.3 °C 1017.5 hPa NE 6.4 km/h 16.1 km/h 79 % 0.0 mm
19:52 5.6 °C 2.4 °C 1017.5 hPa NE 4.8 km/h 14.5 km/h 80 % 0.0 mm
19:57 5.5 °C 2.3 °C 1017.5 hPa East 3.2 km/h 14.5 km/h 80 % 0.0 mm
20:02 5.3 °C 2.1 °C 1017.5 hPa ENE 3.2 km/h 14.5 km/h 80 % 0.0 mm
20:07 5.3 °C 2.3 °C 1017.5 hPa SSE 3.2 km/h 17.7 km/h 81 % 0.0 mm
20:12 5.2 °C 2.2 °C 1017.5 hPa ENE 9.7 km/h 17.7 km/h 81 % 0.0 mm
20:17 5.1 °C 2.1 °C 1017.5 hPa ENE 3.2 km/h 17.7 km/h 81 % 0.0 mm
20:22 4.8 °C 2.0 °C 1017.5 hPa NE 1.6 km/h 11.3 km/h 82 % 0.0 mm
20:27 4.8 °C 2.0 °C 1017.8 hPa ESE 4.8 km/h 11.3 km/h 82 % 0.0 mm
20:32 4.7 °C 1.9 °C 1017.8 hPa ENE 1.6 km/h 11.3 km/h 82 % 0.0 mm
20:37 4.6 °C 2.0 °C 1017.8 hPa East 3.2 km/h 9.7 km/h 83 % 0.0 mm
20:42 4.5 °C 1.9 °C 1017.8 hPa Calm   9.7 km/h 83 % 0.0 mm
20:47 4.4 °C 1.8 °C 1017.8 hPa ENE 1.6 km/h 8.0 km/h 83 % 0.0 mm
20:52 4.3 °C 1.8 °C 1017.8 hPa ENE 3.2 km/h 11.3 km/h 84 % 0.0 mm
20:57 4.3 °C 1.8 °C 1017.8 hPa Calm   11.3 km/h 84 % 0.0 mm
21:02 4.2 °C 1.7 °C 1017.8 hPa NE 6.4 km/h 9.7 km/h 84 % 0.0 mm
21:07 4.2 °C 1.7 °C 1017.8 hPa NNE 3.2 km/h 11.3 km/h 84 % 0.0 mm
21:12 4.1 °C 1.6 °C 1018.2 hPa Calm   11.3 km/h 84 % 0.0 mm
21:17 4.0 °C 1.5 °C 1018.2 hPa NE 6.4 km/h 11.3 km/h 84 % 0.0 mm
21:22 3.9 °C 1.6 °C 1018.2 hPa Calm   9.7 km/h 85 % 0.0 mm
21:27 3.8 °C 1.5 °C 1018.2 hPa NE 1.6 km/h 12.9 km/h 85 % 0.0 mm
21:32 3.7 °C 1.6 °C 1018.2 hPa East 4.8 km/h 12.9 km/h 86 % 0.0 mm
21:37 3.7 °C 1.6 °C 1018.2 hPa NE 6.4 km/h 12.9 km/h 86 % 0.0 mm
21:42 3.6 °C 1.5 °C 1018.2 hPa SE 1.6 km/h 11.3 km/h 86 % 0.0 mm
21:47 3.5 °C 1.4 °C 1018.2 hPa ENE 1.6 km/h 11.3 km/h 86 % 0.0 mm
21:52 3.4 °C 1.3 °C 1018.2 hPa NE 6.4 km/h 11.3 km/h 86 % 0.0 mm
21:57 3.3 °C 1.2 °C 1018.2 hPa ESE 3.2 km/h 11.3 km/h 86 % 0.0 mm
22:02 3.3 °C 1.3 °C 1018.2 hPa East 3.2 km/h 14.5 km/h 87 % 0.0 mm
22:07 3.3 °C 1.2 °C 1018.2 hPa NNE 4.8 km/h 14.5 km/h 86 % 0.0 mm
22:12 3.2 °C 1.2 °C 1018.2 hPa Calm   14.5 km/h 87 % 0.0 mm
22:17 3.1 °C 1.1 °C 1018.2 hPa NE 6.4 km/h 14.5 km/h 87 % 0.0 mm
22:22 3.0 °C 1.0 °C 1018.2 hPa North 1.6 km/h 11.3 km/h 87 % 0.0 mm
22:27 2.9 °C 1.0 °C 1018.2 hPa NE 3.2 km/h 12.9 km/h 87 % 0.0 mm
22:32 2.8 °C 1.0 °C 1018.2 hPa Calm   12.9 km/h 88 % 0.0 mm
22:37 2.8 °C 1.0 °C 1018.2 hPa NE 4.8 km/h 8.0 km/h 88 % 0.0 mm
22:42 2.8 °C 1.0 °C 1018.2 hPa ENE 3.2 km/h 11.3 km/h 88 % 0.0 mm
22:47 2.7 °C 0.9 °C 1018.2 hPa NE 1.6 km/h 11.3 km/h 88 % 0.0 mm
22:52 2.7 °C 0.9 °C 1018.5 hPa ENE 3.2 km/h 11.3 km/h 88 % 0.0 mm
22:57 2.7 °C 1.1 °C 1018.5 hPa East 1.6 km/h 9.7 km/h 89 % 0.0 mm
23:02 2.6 °C 1.0 °C 1018.5 hPa NNE 1.6 km/h 9.7 km/h 89 % 0.0 mm
23:12 2.6 °C 1.0 °C 1018.5 hPa Calm   11.3 km/h 89 % 0.0 mm
23:17 2.4 °C 0.8 °C 1018.5 hPa East 3.2 km/h 11.3 km/h 89 % 0.0 mm
23:22 2.4 °C 0.8 °C 1018.5 hPa NNE 1.6 km/h 8.0 km/h 89 % 0.0 mm
23:27 2.4 °C 0.8 °C 1018.5 hPa NE 3.2 km/h 8.0 km/h 89 % 0.0 mm
23:32 2.3 °C 0.7 °C 1018.5 hPa NE 1.6 km/h 8.0 km/h 89 % 0.0 mm
23:37 2.3 °C 0.7 °C 1018.5 hPa Calm   8.0 km/h 89 % 0.0 mm
23:42 2.3 °C 0.7 °C 1018.5 hPa Calm   8.0 km/h 89 % 0.0 mm
23:47 2.2 °C 0.6 °C 1018.5 hPa NE 1.6 km/h 8.0 km/h 89 % 0.0 mm
23:52 2.1 °C 0.6 °C 1018.8 hPa Calm   4.8 km/h 90 % 0.0 mm
23:57 2.0 °C 0.5 °C 1018.8 hPa Calm   3.2 km/h 90 % 0.0 mm
Meteo18
Compliments of Weather Underground - 4 mb

Script developed by  Jim McMurry - jmcmurry@mwt.net Adapted for the template by  Wim van der Kuil - Leuven-Template.eu

You find our weather info also at:

European Weather Network

Weather Underground

Equipment we use:

Weather-station
Davis Vue

Weather-program
Meteohub

Weather-server
Raspberry PI 2 B+

Provider
1 and 1

Davis Vue

Meteohub

Raspberry PI 2 B+

1 and 1